Time;durP1;ratioP1;P1;durP2;ratioP2;P2;SDS_P1;SDS_P2;PMS_P1;PMS_P2;Temp;Humidity;BMP_temperature;BMP_pressure;BME280_temperature;BME280_humidity;BME280_pressure;Samples;Min_cycle;Max_cycle;Signal;HPM_P1;HPM_P2
2021/05/04 00:00:39;;;;;;;5.45;3.40;;;8.30;98.00;;;;;;5029511;28;20021;-45
2021/05/04 00:03:04;;;;;;;5.47;3.65;;;8.40;97.20;;;;;;5029618;28;20021;-45
2021/05/04 00:05:30;;;;;;;7.55;3.33;;;8.40;97.00;;;;;;5029529;28;20160;-45
2021/05/04 00:07:55;;;;;;;5.10;3.47;;;8.50;96.50;;;;;;5027764;28;20026;-45
2021/05/04 00:10:21;;;;;;;4.70;3.53;;;8.50;96.10;;;;;;5028255;28;20315;-45
2021/05/04 00:12:46;;;;;;;8.07;3.92;;;8.50;96.20;;;;;;5028162;28;20121;-45
2021/05/04 00:15:13;;;;;;;6.18;4.70;;;8.50;95.90;;;;;;5029152;28;20589;-46
2021/05/04 00:17:38;;;;;;;5.65;3.65;;;8.60;95.90;;;;;;5027398;28;20029;-45
2021/05/04 00:20:05;;;;;;;4.57;3.63;;;8.60;94.90;;;;;;5029439;28;20451;-45
2021/05/04 00:22:31;;;;;;;6.65;3.75;;;8.70;94.80;;;;;;5027806;28;20060;-44
2021/05/04 00:24:56;;;;;;;5.10;3.38;;;8.70;94.60;;;;;;5029658;28;20029;-45
2021/05/04 00:27:22;;;;;;;7.07;3.67;;;8.70;94.50;;;;;;5028751;28;20037;-44
2021/05/04 00:29:47;;;;;;;5.72;4.07;;;8.70;94.20;;;;;;5028931;28;20609;-45
2021/05/04 00:32:13;;;;;;;6.20;3.60;;;8.70;93.90;;;;;;5029241;28;20549;-45
2021/05/04 00:34:38;;;;;;;6.50;4.35;;;8.80;93.60;;;;;;5029193;28;20041;-45
2021/05/04 00:37:04;;;;;;;6.88;4.55;;;8.80;93.00;;;;;;5029088;28;20056;-45
2021/05/04 00:39:34;;;;;;;3.92;3.50;;;8.80;93.20;;;;;;5028507;28;20022;-45
2021/05/04 00:42:00;;;;;;;7.63;3.78;;;8.90;93.00;;;;;;5028809;28;20075;-46
2021/05/04 00:44:27;;;;;;;5.85;3.60;;;9.00;92.90;;;;;;5028676;28;20155;-46
2021/05/04 00:46:52;;;;;;;4.95;3.75;;;9.10;92.20;;;;;;5010688;28;20369;-45
2021/05/04 00:49:18;;;;;;;6.22;4.28;;;9.10;91.70;;;;;;5008612;28;20036;-45
2021/05/04 00:51:43;;;;;;;5.55;4.40;;;9.10;91.40;;;;;;5009091;28;20045;-45
2021/05/04 00:54:10;;;;;;;7.47;4.20;;;9.10;91.30;;;;;;5009369;28;20022;-45
2021/05/04 00:56:38;;;;;;;6.70;3.67;;;9.10;91.40;;;;;;5009033;28;20029;-45
2021/05/04 00:59:05;;;;;;;6.68;4.00;;;9.10;91.10;;;;;;5018847;28;20510;-45
2021/05/04 01:01:31;;;;;;;5.30;4.10;;;9.20;91.20;;;;;;5028753;28;20029;-45
2021/05/04 01:03:58;;;;;;;4.78;3.97;;;9.20;90.90;;;;;;5028852;28;20041;-45
2021/05/04 01:06:23;;;;;;;6.00;4.20;;;9.30;90.50;;;;;;5028542;28;20037;-45
2021/05/04 01:08:49;;;;;;;7.18;4.30;;;9.30;90.70;;;;;;5027977;28;20025;-45
2021/05/04 01:11:15;;;;;;;4.68;3.55;;;9.30;90.20;;;;;;5027359;28;20113;-45
2021/05/04 01:13:44;;;;;;;8.10;4.35;;;9.30;90.40;;;;;;5028635;28;20080;-47
2021/05/04 01:16:09;;;;;;;4.88;4.15;;;9.20;90.70;;;;;;5028441;28;20017;-45
2021/05/04 01:18:35;;;;;;;5.28;4.00;;;9.20;91.10;;;;;;5028346;28;20379;-45
2021/05/04 01:21:00;;;;;;;8.02;4.85;;;9.30;90.60;;;;;;5027228;28;20018;-45
2021/05/04 01:23:26;;;;;;;9.10;4.50;;;9.30;91.00;;;;;;5028327;28;20041;-45
2021/05/04 01:25:51;;;;;;;6.93;4.85;;;9.30;91.00;;;;;;5028475;28;20030;-45
2021/05/04 01:28:17;;;;;;;7.70;4.50;;;9.30;91.00;;;;;;5027874;28;20025;-44
2021/05/04 01:30:42;;;;;;;7.53;4.90;;;9.30;91.00;;;;;;5028090;28;20403;-45
2021/05/04 01:33:08;;;;;;;6.93;4.70;;;9.20;91.30;;;;;;5027063;28;20045;-45
2021/05/04 01:35:33;;;;;;;8.80;5.38;;;9.10;91.60;;;;;;5028459;28;20038;-47
2021/05/04 01:37:59;;;;;;;9.35;5.43;;;9.20;91.70;;;;;;5027588;28;20121;-45
2021/05/04 01:40:24;;;;;;;8.25;4.70;;;9.20;91.60;;;;;;5028378;28;20068;-44
2021/05/04 01:42:50;;;;;;;6.03;4.97;;;9.20;91.80;;;;;;5028331;28;20037;-45
2021/05/04 01:45:16;;;;;;;9.50;5.22;;;9.20;91.90;;;;;;5028062;28;20091;-44
2021/05/04 01:47:42;;;;;;;8.27;5.50;;;9.20;92.00;;;;;;5026439;28;20205;-44
2021/05/04 01:50:09;;;;;;;8.32;5.03;;;9.30;91.80;;;;;;5028394;28;20029;-44
2021/05/04 01:52:35;;;;;;;7.22;5.60;;;9.30;91.50;;;;;;5028887;28;20112;-47
2021/05/04 01:55:01;;;;;;;8.70;5.43;;;9.30;91.30;;;;;;5032312;28;20033;-46
2021/05/04 01:57:27;;;;;;;8.18;5.30;;;9.40;91.20;;;;;;5031393;28;20483;-45
2021/05/04 01:59:53;;;;;;;10.35;5.82;;;9.40;90.70;;;;;;5031864;28;20026;-44
2021/05/04 02:02:18;;;;;;;7.97;5.25;;;9.40;90.60;;;;;;5031929;28;20021;-44
2021/05/04 02:04:44;;;;;;;9.10;5.47;;;9.50;90.50;;;;;;5032109;28;20030;-44
2021/05/04 02:07:10;;;;;;;6.30;4.95;;;9.50;90.10;;;;;;5031713;28;20157;-45
2021/05/04 02:09:35;;;;;;;7.55;5.03;;;9.50;89.80;;;;;;5031265;28;20064;-45
2021/05/04 02:12:00;;;;;;;7.50;5.25;;;9.60;89.40;;;;;;5031978;28;20099;-44
2021/05/04 02:14:27;;;;;;;7.95;5.38;;;9.60;88.70;;;;;;5031264;28;20112;-45
2021/05/04 02:16:52;;;;;;;9.20;4.88;;;9.60;88.30;;;;;;5031747;28;20049;-47
2021/05/04 02:19:18;;;;;;;8.15;5.10;;;9.60;88.20;;;;;;5030784;28;20156;-45
2021/05/04 02:21:44;;;;;;;6.60;4.97;;;9.70;88.10;;;;;;5030979;28;20486;-45
2021/05/04 02:24:09;;;;;;;7.80;5.00;;;9.70;87.40;;;;;;5031357;28;20032;-45
2021/05/04 02:26:35;;;;;;;6.90;5.10;;;9.70;87.30;;;;;;5031633;28;20018;-45
2021/05/04 02:29:00;;;;;;;5.32;4.25;;;9.70;87.00;;;;;;5030668;28;20091;-45
2021/05/04 02:31:26;;;;;;;5.72;4.50;;;9.80;86.90;;;;;;5031172;28;20497;-46
2021/05/04 02:33:51;;;;;;;7.40;4.78;;;9.70;87.30;;;;;;5031582;28;20025;-45
2021/05/04 02:36:17;;;;;;;8.18;4.78;;;9.80;87.10;;;;;;5031391;28;20470;-45
2021/05/04 02:38:43;;;;;;;9.23;4.85;;;9.80;87.00;;;;;;5030850;28;20026;-44
2021/05/04 02:41:09;;;;;;;7.80;4.65;;;9.80;86.40;;;;;;5031262;28;20241;-45
2021/05/04 02:43:35;;;;;;;7.30;4.60;;;9.80;86.00;;;;;;5031085;28;20075;-46
2021/05/04 02:46:05;;;;;;;7.07;4.32;;;9.80;86.70;;;;;;5030966;28;20029;-44
2021/05/04 02:48:33;;;;;;;7.00;4.85;;;9.80;86.00;;;;;;5030682;28;20021;-46
2021/05/04 02:50:59;;;;;;;7.65;5.55;;;9.80;86.10;;;;;;5031426;28;20029;-45
2021/05/04 02:53:24;;;;;;;7.40;5.13;;;9.90;86.30;;;;;;5029950;28;20025;-45
2021/05/04 02:55:50;;;;;;;7.53;5.25;;;9.90;86.20;;;;;;5030990;28;20072;-45
2021/05/04 02:58:15;;;;;;;5.47;4.50;;;9.90;85.60;;;;;;5030060;28;20419;-45
2021/05/04 03:00:41;;;;;;;7.40;5.10;;;9.80;85.50;;;;;;5030651;28;20017;-45
2021/05/04 03:03:06;;;;;;;7.50;5.00;;;9.90;85.80;;;;;;5030623;28;20403;-44
2021/05/04 03:05:32;;;;;;;5.65;4.63;;;9.90;85.70;;;;;;5030680;28;20463;-44
2021/05/04 03:07:57;;;;;;;9.23;5.30;;;10.00;86.00;;;;;;5030217;28;20542;-45
2021/05/04 03:10:23;;;;;;;6.45;4.70;;;10.00;85.30;;;;;;5030676;28;20040;-45
2021/05/04 03:12:48;;;;;;;8.23;5.68;;;10.00;84.90;;;;;;5030940;28;20501;-45
2021/05/04 03:15:14;;;;;;;6.90;5.15;;;9.90;85.30;;;;;;5030276;28;20518;-46
2021/05/04 03:17:40;;;;;;;8.45;4.97;;;10.00;85.00;;;;;;5030037;28;20056;-45
2021/05/04 03:20:06;;;;;;;6.70;5.22;;;10.00;84.30;;;;;;5030360;28;20025;-45
2021/05/04 03:22:32;;;;;;;9.15;5.65;;;10.00;84.40;;;;;;5030605;28;20471;-45
2021/05/04 03:24:57;;;;;;;6.65;4.60;;;9.90;84.50;;;;;;5030692;28;20083;-48
2021/05/04 03:27:23;;;;;;;5.50;4.18;;;10.00;84.70;;;;;;5028768;28;20079;-45
2021/05/04 03:29:49;;;;;;;10.50;5.03;;;10.00;84.40;;;;;;5029752;28;20115;-45
2021/05/04 03:32:15;;;;;;;9.15;5.07;;;10.00;84.50;;;;;;5030147;28;20215;-46
2021/05/04 03:34:41;;;;;;;8.32;5.07;;;10.00;84.70;;;;;;5030068;28;20108;-45
2021/05/04 03:37:06;;;;;;;8.90;5.05;;;10.00;84.00;;;;;;5029983;28;20105;-45
2021/05/04 03:39:32;;;;;;;9.18;5.22;;;10.00;84.30;;;;;;5029565;28;20142;-44
2021/05/04 03:41:57;;;;;;;9.43;4.85;;;10.00;84.80;;;;;;5030054;28;20476;-44
2021/05/04 03:44:23;;;;;;;8.52;5.68;;;9.90;84.00;;;;;;5029040;28;20018;-44
2021/05/04 03:46:48;;;;;;;8.93;5.10;;;10.00;83.90;;;;;;5028528;28;20053;-44
2021/05/04 03:49:15;;;;;;;11.23;5.75;;;10.00;84.30;;;;;;5029176;28;20336;-45
2021/05/04 03:51:40;;;;;;;7.43;5.25;;;10.00;83.50;;;;;;5028172;28;20121;-44
2021/05/04 03:54:06;;;;;;;9.55;5.55;;;10.10;83.60;;;;;;5029385;28;20029;-45
2021/05/04 03:56:32;;;;;;;8.25;5.53;;;10.10;83.50;;;;;;5029148;28;20510;-45
2021/05/04 03:58:59;;;;;;;12.45;5.47;;;10.10;83.60;;;;;;5028657;28;20128;-44
2021/05/04 04:01:25;;;;;;;8.77;5.18;;;10.10;82.90;;;;;;5029082;28;20021;-45
2021/05/04 04:03:52;;;;;;;6.75;4.80;;;10.20;83.50;;;;;;5029035;28;20033;-45
2021/05/04 04:06:18;;;;;;;7.80;5.10;;;10.20;83.40;;;;;;5029216;28;20087;-45
2021/05/04 04:08:46;;;;;;;8.75;5.32;;;10.10;83.50;;;;;;5028885;28;20032;-46
2021/05/04 04:11:11;;;;;;;8.50;5.50;;;10.10;83.70;;;;;;5029622;28;20028;-45
2021/05/04 04:13:37;;;;;;;9.85;6.18;;;10.10;84.00;;;;;;5029479;28;20033;-45
2021/05/04 04:16:03;;;;;;;9.25;5.95;;;10.00;84.70;;;;;;5028762;28;20030;-45
2021/05/04 04:18:28;;;;;;;8.23;5.55;;;10.00;84.70;;;;;;5028796;28;20487;-45
2021/05/04 04:20:54;;;;;;;10.93;6.18;;;10.00;84.90;;;;;;5028219;28;20395;-45
2021/05/04 04:23:19;;;;;;;10.40;5.75;;;10.10;84.70;;;;;;5029646;28;20368;-45
2021/05/04 04:25:44;;;;;;;9.07;6.10;;;10.00;84.40;;;;;;5028015;28;20033;-45
2021/05/04 04:28:10;;;;;;;10.60;6.32;;;10.10;84.10;;;;;;5028574;28;20030;-45
2021/05/04 04:30:36;;;;;;;8.30;6.00;;;10.20;83.70;;;;;;5027588;28;20044;-45
2021/05/04 04:33:01;;;;;;;9.68;5.85;;;10.30;83.60;;;;;;5029106;28;20065;-44
2021/05/04 04:35:27;;;;;;;11.35;6.38;;;10.20;83.40;;;;;;5029224;28;20021;-45
2021/05/04 04:37:52;;;;;;;11.80;5.60;;;10.40;83.50;;;;;;5027450;28;20026;-45
2021/05/04 04:40:18;;;;;;;10.82;6.32;;;10.40;83.50;;;;;;5028710;28;20051;-45
2021/05/04 04:42:43;;;;;;;11.55;6.82;;;10.30;83.50;;;;;;5029354;28;20280;-45
2021/05/04 04:45:09;;;;;;;8.73;6.03;;;10.30;82.90;;;;;;5029434;28;20079;-45
2021/05/04 04:47:35;;;;;;;12.52;5.90;;;10.40;83.20;;;;;;5028457;28;20295;-45
2021/05/04 04:50:00;;;;;;;8.88;6.22;;;10.40;82.70;;;;;;5026840;28;20030;-45
2021/05/04 04:52:26;;;;;;;9.23;6.22;;;10.40;82.90;;;;;;5028408;28;20059;-45
2021/05/04 04:54:53;;;;;;;9.02;6.03;;;10.30;83.30;;;;;;5028549;28;20104;-44
2021/05/04 04:57:18;;;;;;;11.20;6.72;;;10.30;82.70;;;;;;5028553;28;20024;-45
2021/05/04 04:59:45;;;;;;;9.45;6.03;;;10.50;82.50;;;;;;5027919;28;20041;-45
2021/05/04 05:02:11;;;;;;;12.75;6.13;;;10.50;82.30;;;;;;5028318;28;20028;-44
2021/05/04 05:04:36;;;;;;;8.43;5.95;;;10.50;82.20;;;;;;5023776;28;20391;-45
2021/05/04 05:07:06;;;;;;;8.65;5.72;;;10.50;82.40;;;;;;5009056;28;20040;-46
2021/05/04 05:09:33;;;;;;;12.50;6.22;;;10.50;82.10;;;;;;5008487;28;20041;-46
2021/05/04 05:11:59;;;;;;;9.70;6.32;;;10.60;82.10;;;;;;5009307;28;20096;-45
2021/05/04 05:14:25;;;;;;;11.63;6.40;;;10.60;81.00;;;;;;5008919;28;20209;-45
2021/05/04 05:16:50;;;;;;;12.43;6.15;;;10.60;82.00;;;;;;5026176;28;20026;-46
2021/05/04 05:19:15;;;;;;;7.47;5.35;;;10.50;82.60;;;;;;5026500;28;20025;-46
2021/05/04 05:21:41;;;;;;;8.27;5.68;;;10.50;83.40;;;;;;5028847;28;20561;-44
2021/05/04 05:24:08;;;;;;;9.20;5.88;;;10.50;85.60;;;;;;5028724;28;20057;-47
2021/05/04 05:26:34;;;;;;;8.07;6.07;;;10.50;87.10;;;;;;5028178;28;20039;-44
2021/05/04 05:29:00;;;;;;;6.82;4.97;;;10.40;88.00;;;;;;5027981;28;20026;-45
2021/05/04 05:31:28;;;;;;;7.82;5.40;;;10.40;88.60;;;;;;5026805;28;20029;-45
2021/05/04 05:33:55;;;;;;;5.53;4.03;;;10.40;90.30;;;;;;5029261;28;20033;-45
2021/05/04 05:36:21;;;;;;;5.55;3.70;;;10.60;87.10;;;;;;5030348;28;20026;-44
2021/05/04 05:38:47;;;;;;;6.03;3.75;;;10.80;84.70;;;;;;5031542;28;20048;-45
2021/05/04 05:41:12;;;;;;;4.82;3.40;;;10.90;84.00;;;;;;5031425;28;20029;-44
2021/05/04 05:43:38;;;;;;;6.72;3.60;;;11.10;82.80;;;;;;5031509;28;20244;-44
2021/05/04 05:46:04;;;;;;;6.25;3.03;;;11.20;82.30;;;;;;5031322;28;20028;-44
2021/05/04 05:48:30;;;;;;;5.03;3.20;;;11.30;80.60;;;;;;5030934;28;20028;-44
2021/05/04 05:50:55;;;;;;;9.25;4.05;;;11.40;81.00;;;;;;5031793;28;20045;-45
2021/05/04 05:53:21;;;;;;;4.05;2.70;;;11.50;80.10;;;;;;5031487;28;20710;-44
2021/05/04 05:55:48;;;;;;;7.10;2.72;;;11.60;78.60;;;;;;5030183;28;20497;-44
2021/05/04 05:58:13;;;;;;;4.60;3.10;;;11.70;78.80;;;;;;5031070;28;20022;-44
2021/05/04 06:00:39;;;;;;;6.55;2.95;;;11.70;78.20;;;;;;5031682;28;20076;-45
2021/05/04 06:03:05;;;;;;;8.73;3.40;;;11.80;77.90;;;;;;5031743;28;20101;-47
2021/05/04 06:05:33;;;;;;;10.23;3.08;;;11.90;78.20;;;;;;5031672;28;20026;-44
2021/05/04 06:08:00;;;;;;;5.80;3.20;;;11.90;76.90;;;;;;5030849;28;20033;-46
2021/05/04 06:10:26;;;;;;;5.93;3.15;;;12.10;75.90;;;;;;5031364;28;20037;-44
2021/05/04 06:13:03;;;;;;;5.63;3.60;;;12.10;76.00;;;;;;5030938;28;20496;-45
2021/05/04 06:15:30;;;;;;;7.13;3.33;;;12.20;76.00;;;;;;5029876;28;20025;-45
2021/05/04 06:17:56;;;;;;;3.65;2.83;;;12.20;76.20;;;;;;5030510;28;20025;-44
2021/05/04 06:20:21;;;;;;;4.07;3.00;;;12.20;75.40;;;;;;5032414;28;20051;-46
2021/05/04 06:22:47;;;;;;;5.00;2.67;;;12.20;76.50;;;;;;5030414;28;20026;-45
2021/05/04 06:25:13;;;;;;;4.97;3.10;;;12.20;75.60;;;;;;5031219;28;20032;-45
2021/05/04 06:27:40;;;;;;;5.28;3.38;;;12.20;76.20;;;;;;5029453;28;20021;-44
2021/05/04 06:30:07;;;;;;;5.68;3.03;;;12.30;76.00;;;;;;5032045;28;20155;-45
2021/05/04 06:32:33;;;;;;;4.20;3.00;;;12.30;77.30;;;;;;5035362;28;20057;-49
2021/05/04 06:34:59;;;;;;;4.78;3.40;;;12.40;82.20;;;;;;5030221;28;20475;-44
2021/05/04 06:37:24;;;;;;;3.72;2.75;;;12.20;86.20;;;;;;5031048;28;20022;-44
2021/05/04 06:39:50;;;;;;;5.03;3.10;;;11.90;90.20;;;;;;5031181;28;20061;-45
2021/05/04 06:42:16;;;;;;;2.88;2.38;;;11.80;91.00;;;;;;5031342;28;20092;-44
2021/05/04 06:44:41;;;;;;;3.58;3.15;;;11.70;91.10;;;;;;5031479;28;20036;-43
2021/05/04 06:47:07;;;;;;;9.35;2.90;;;11.60;91.30;;;;;;5011688;28;20052;-45
2021/05/04 06:49:32;;;;;;;7.95;3.05;;;11.70;91.40;;;;;;5034350;28;20100;-44
2021/05/04 06:51:58;;;;;;;6.68;3.40;;;11.60;91.90;;;;;;5051118;28;20401;-44
2021/05/04 06:54:23;;;;;;;4.43;2.80;;;11.60;92.80;;;;;;5040464;28;20025;-44
2021/05/04 06:56:51;;;;;;;4.63;2.83;;;11.50;92.90;;;;;;5030865;28;20033;-46
2021/05/04 06:59:16;;;;;;;3.22;2.65;;;11.30;94.20;;;;;;5030382;28;20022;-45
2021/05/04 07:01:42;;;;;;;4.63;2.95;;;11.20;94.30;;;;;;5030499;28;20128;-44
2021/05/04 07:04:07;;;;;;;3.80;2.75;;;11.20;95.50;;;;;;5030863;28;20444;-44
2021/05/04 07:06:33;;;;;;;4.70;2.95;;;11.40;95.40;;;;;;5025829;28;20030;-44
2021/05/04 07:08:58;;;;;;;3.55;2.47;;;11.60;95.50;;;;;;5028726;28;20026;-44
2021/05/04 07:11:24;;;;;;;4.78;2.90;;;11.80;94.50;;;;;;5029447;28;20025;-47
2021/05/04 07:13:49;;;;;;;5.88;3.08;;;11.90;94.80;;;;;;5030811;28;20030;-44
2021/05/04 07:16:15;;;;;;;7.45;3.20;;;11.90;94.00;;;;;;5017534;28;20025;-44
2021/05/04 07:18:41;;;;;;;4.53;2.83;;;12.00;93.90;;;;;;5025016;28;20033;-44
2021/05/04 07:21:09;;;;;;;6.30;3.03;;;12.00;93.20;;;;;;5030651;28;20026;-44
2021/05/04 07:23:38;;;;;;;3.17;2.67;;;12.00;94.30;;;;;;5028888;28;20068;-44
2021/05/04 07:26:05;;;;;;;3.30;2.40;;;12.20;93.20;;;;;;5030486;28;20040;-45
2021/05/04 07:28:31;;;;;;;3.65;2.40;;;12.30;92.00;;;;;;5029470;28;20105;-45
2021/05/04 07:30:57;;;;;;;3.25;2.80;;;12.40;91.70;;;;;;5028102;28;20116;-45
2021/05/04 07:33:23;;;;;;;3.30;2.03;;;12.40;91.40;;;;;;5030361;28;20029;-45
2021/05/04 07:35:49;;;;;;;4.05;2.50;;;12.40;91.30;;;;;;5030369;28;20022;-44
2021/05/04 07:38:16;;;;;;;5.93;2.53;;;12.40;92.00;;;;;;5029297;28;20184;-45
2021/05/04 07:40:42;;;;;;;3.90;2.42;;;12.90;91.20;;;;;;5030433;28;20033;-45
2021/05/04 07:43:07;;;;;;;5.30;2.35;;;12.90;91.00;;;;;;5030328;28;20029;-45
2021/05/04 07:45:33;;;;;;;5.50;2.72;;;12.90;90.50;;;;;;5029935;28;20034;-46
2021/05/04 07:48:00;;;;;;;3.80;2.75;;;12.90;90.50;;;;;;5029662;28;20032;-44
2021/05/04 07:50:27;;;;;;;5.25;2.10;;;12.70;90.10;;;;;;5029034;28;20032;-45
2021/05/04 07:52:53;;;;;;;3.05;2.20;;;12.70;90.10;;;;;;5030226;28;20025;-45
2021/05/04 07:55:18;;;;;;;4.05;2.45;;;12.60;90.90;;;;;;5029820;28;20044;-45
2021/05/04 07:57:44;;;;;;;3.70;2.15;;;12.50;91.50;;;;;;5027508;28;20037;-45
2021/05/04 08:00:10;;;;;;;4.70;2.55;;;12.40;92.30;;;;;;5028392;28;20024;-44
2021/05/04 08:02:35;;;;;;;3.40;2.28;;;12.30;91.30;;;;;;5029877;28;20247;-45
2021/05/04 08:05:01;;;;;;;3.22;2.40;;;12.10;92.20;;;;;;5029651;28;20022;-45
2021/05/04 08:07:26;;;;;;;4.65;2.22;;;12.10;92.40;;;;;;5028737;28;20099;-44
2021/05/04 08:09:53;;;;;;;5.25;2.47;;;12.20;92.00;;;;;;5029142;28;20025;-45
2021/05/04 08:12:19;;;;;;;4.00;2.17;;;12.30;92.30;;;;;;5029558;28;20021;-44
2021/05/04 08:14:45;;;;;;;5.70;2.10;;;12.30;92.00;;;;;;5029379;28;20072;-45
2021/05/04 08:17:16;;;;;;;2.42;2.22;;;12.50;92.30;;;;;;5009779;28;20050;-44
2021/05/04 08:19:42;;;;;;;7.97;2.40;;;12.60;91.40;;;;;;5024235;28;20129;-44
2021/05/04 08:22:07;;;;;;;11.10;2.53;;;12.80;90.70;;;;;;5029185;28;20443;-44
2021/05/04 08:24:33;;;;;;;4.88;2.22;;;13.10;90.60;;;;;;5029281;28;20036;-44
2021/05/04 08:26:59;;;;;;;4.20;2.50;;;13.50;87.70;;;;;;5029471;28;20021;-45
2021/05/04 08:29:25;;;;;;;8.95;2.75;;;13.80;86.50;;;;;;5027956;28;20193;-44
2021/05/04 08:31:50;;;;;;;4.65;2.55;;;13.60;84.80;;;;;;5028011;28;20041;-44
2021/05/04 08:34:16;;;;;;;2.58;2.28;;;13.40;86.40;;;;;;5029380;28;20051;-44
2021/05/04 08:36:41;;;;;;;8.07;2.42;;;13.40;86.60;;;;;;5028979;28;20022;-44
2021/05/04 08:39:07;;;;;;;6.30;2.40;;;13.00;89.20;;;;;;5028220;28;20087;-44
2021/05/04 08:41:34;;;;;;;4.45;2.08;;;13.10;90.10;;;;;;5028896;28;20526;-45
2021/05/04 08:43:59;;;;;;;3.33;2.45;;;13.20;87.90;;;;;;5027625;28;20501;-45
2021/05/04 08:46:26;;;;;;;7.68;2.75;;;13.50;87.70;;;;;;5028350;28;20104;-45
2021/05/04 08:48:52;;;;;;;5.35;2.10;;;13.50;88.30;;;;;;5027932;28;20033;-45
2021/05/04 08:51:17;;;;;;;4.90;2.80;;;13.90;86.80;;;;;;5027900;28;20037;-46
2021/05/04 08:53:44;;;;;;;2.97;2.22;;;13.80;85.30;;;;;;5028292;28;20487;-45
2021/05/04 08:56:13;;;;;;;4.10;2.30;;;13.70;87.20;;;;;;5026690;28;20028;-45
2021/05/04 08:58:40;;;;;;;4.30;2.50;;;13.80;85.50;;;;;;5027692;28;20017;-43
2021/05/04 09:01:05;;;;;;;5.82;2.20;;;13.90;86.00;;;;;;5027828;28;20387;-44
2021/05/04 09:03:35;;;;;;;4.70;1.90;;;13.90;85.10;;;;;;5028280;28;20037;-44
2021/05/04 09:06:06;;;;;;;6.72;1.90;;;13.60;86.30;;;;;;5028202;28;20033;-43
2021/05/04 09:08:37;;;;;;;2.30;1.95;;;13.60;88.20;;;;;;5027527;28;20097;-48
2021/05/04 09:21:43;;;;;;;3.50;1.95;;;17.20;69.80;;;;;;5027072;28;20051;-45
2021/05/04 09:24:19;;;;;;;3.03;1.55;;;18.80;66.00;;;;;;5026841;28;20495;-46
2021/05/04 09:26:45;;;;;;;2.92;1.65;;;18.60;66.10;;;;;;5025956;28;20038;-44
2021/05/04 09:29:11;;;;;;;4.95;1.50;;;19.20;62.90;;;;;;5026126;28;20021;-45
2021/05/04 09:31:38;;;;;;;3.20;1.70;;;20.30;58.30;;;;;;5025975;28;20495;-45
2021/05/04 09:34:15;;;;;;;3.00;1.67;;;18.70;60.00;;;;;;5027809;28;20071;-49
2021/05/04 09:36:43;;;;;;;2.33;1.55;;;17.70;62.10;;;;;;5026309;28;20045;-45
2021/05/04 09:39:31;;;;;;;2.38;1.90;;;16.30;67.00;;;;;;5026889;28;20049;-45
2021/05/04 09:41:58;;;;;;;2.33;1.92;;;15.70;68.60;;;;;;5024565;28;20029;-44
2021/05/04 09:44:40;;;;;;;5.75;2.05;;;15.00;71.60;;;;;;5027591;28;20033;-44
2021/05/04 09:47:08;;;;;;;6.78;2.10;;;14.30;74.50;;;;;;5026148;28;20033;-44
2021/05/04 09:49:38;;;;;;;2.25;2.00;;;13.60;77.50;;;;;;5020285;28;20029;-44
2021/05/04 09:52:28;;;;;;;;;;;13.50;79.00;;;;;;5025414;28;20120;-44
2021/05/04 09:55:11;;;;;;;3.47;1.88;;;13.10;80.80;;;;;;5022917;28;19967;-45
2021/05/04 09:57:40;;;;;;;2.75;1.67;;;13.20;83.60;;;;;;5015479;28;20068;-46
2021/05/04 10:00:26;;;;;;;4.28;1.80;;;13.20;82.20;;;;;;5027116;28;20036;-45
2021/05/04 10:02:52;;;;;;;5.60;1.80;;;13.00;83.00;;;;;;5026739;28;20450;-45
2021/05/04 10:05:19;;;;;;;3.67;1.50;;;13.10;83.80;;;;;;5028152;28;20044;-45
2021/05/04 10:07:46;;;;;;;3.08;1.40;;;13.00;83.70;;;;;;5027303;28;20064;-45
2021/05/04 10:10:14;;;;;;;5.80;1.50;;;13.10;84.60;;;;;;5028359;28;20057;-46
2021/05/04 10:12:41;;;;;;;5.97;2.42;;;12.70;84.70;;;;;;5027961;28;20037;-45
2021/05/04 10:15:09;;;;;;;2.40;1.45;;;12.60;86.70;;;;;;5029540;28;20026;-44
2021/05/04 10:17:36;;;;;;;3.42;1.67;;;12.60;86.60;;;;;;5031082;28;20100;-45
2021/05/04 10:20:09;;;;;;;5.13;1.67;;;12.80;86.80;;;;;;5031747;28;20108;-44
2021/05/04 10:22:36;;;;;;;2.13;1.50;;;12.90;86.40;;;;;;5031647;28;20104;-44
2021/05/04 10:25:08;;;;;;;1.50;1.40;;;12.60;88.20;;;;;;5031597;28;20032;-45
2021/05/04 10:27:34;;;;;;;5.18;1.52;;;12.70;88.30;;;;;;5030793;28;20299;-45
2021/05/04 10:30:01;;;;;;;2.10;1.55;;;12.90;87.50;;;;;;5031343;28;20497;-45
2021/05/04 10:32:46;;;;;;;3.55;1.35;;;13.10;87.20;;;;;;5031210;28;20048;-45
2021/05/04 10:35:42;;;;;;;2.60;1.65;;;13.00;87.00;;;;;;5031337;28;20442;-45
2021/05/04 10:38:14;;;;;;;2.35;1.33;;;13.30;86.10;;;;;;5029695;28;20116;-45
2021/05/04 10:40:45;;;;;;;2.25;1.48;;;13.20;85.70;;;;;;5029544;28;20053;-44
2021/05/04 10:43:23;;;;;;;3.45;1.58;;;13.10;87.30;;;;;;5029593;28;20072;-45
2021/05/04 10:45:51;;;;;;;1.83;1.40;;;12.90;88.10;;;;;;5029716;28;20017;-44
2021/05/04 10:48:35;;;;;;;1.20;1.02;;;12.80;89.60;;;;;;5028398;28;20034;-44
2021/05/04 10:51:01;;;;;;;2.92;1.70;;;12.60;90.40;;;;;;5030977;28;20473;-45
2021/05/04 10:53:49;;;;;;;2.78;1.35;;;12.60;91.10;;;;;;5031009;28;20105;-46
2021/05/04 10:56:16;;;;;;;1.98;1.42;;;12.60;91.50;;;;;;5029100;28;20029;-46
2021/05/04 10:58:59;;;;;;;5.65;1.65;;;12.70;91.60;;;;;;5028508;28;20021;-44
2021/05/04 11:01:26;;;;;;;4.28;1.30;;;12.70;91.30;;;;;;5028021;28;20100;-45
2021/05/04 11:03:59;;;;;;;1.70;1.13;;;12.90;91.50;;;;;;5030494;28;20018;-47
2021/05/04 11:06:24;;;;;;;2.25;1.15;;;13.10;90.90;;;;;;5024881;28;20498;-45
2021/05/04 11:08:50;;;;;;;1.73;1.20;;;13.80;89.70;;;;;;5029530;28;20030;-45
2021/05/04 11:11:26;;;;;;;3.58;1.58;;;14.10;87.80;;;;;;5030026;28;20340;-45
2021/05/04 11:13:57;;;;;;;3.85;1.23;;;14.50;84.00;;;;;;5028700;28;20014;-45
2021/05/04 11:16:41;;;;;;;;;;;14.70;83.70;;;;;;5026625;28;20288;-44
2021/05/04 11:19:12;;;;;;;1.45;1.25;;;14.90;81.80;;;;;;5027086;28;19905;-45
2021/05/04 11:21:42;;;;;;;4.25;1.30;;;14.40;81.80;;;;;;5027721;28;20029;-45
2021/05/04 11:24:19;;;;;;;4.70;1.20;;;14.50;82.10;;;;;;5030278;28;20146;-44
2021/05/04 11:26:59;;;;;;;2.53;0.95;;;14.40;82.40;;;;;;5028207;28;20503;-45
2021/05/04 11:29:39;;;;;;;4.55;1.17;;;14.70;79.70;;;;;;5027730;28;20029;-45
2021/05/04 11:32:27;;;;;;;4.07;1.52;;;14.80;79.60;;;;;;5027578;28;20111;-47
2021/05/04 11:34:58;;;;;;;2.75;1.40;;;14.30;79.80;;;;;;5028612;28;20033;-48
2021/05/04 11:37:23;;;;;;;4.68;1.38;;;14.30;82.30;;;;;;5026977;28;20018;-44
2021/05/04 11:39:50;;;;;;;2.95;1.23;;;13.80;82.40;;;;;;5029842;28;20022;-45
2021/05/04 11:42:15;;;;;;;2.83;1.55;;;13.70;84.30;;;;;;5028279;28;20618;-46
2021/05/04 11:44:41;;;;;;;2.67;1.23;;;13.80;83.70;;;;;;5029943;28;20125;-45
2021/05/04 11:47:27;;;;;;;2.20;1.10;;;13.70;85.60;;;;;;5009944;28;20029;-45
2021/05/04 11:50:04;;;;;;;2.65;1.40;;;14.10;84.10;;;;;;5010545;28;20030;-45
2021/05/04 11:52:30;;;;;;;1.58;1.25;;;14.40;83.10;;;;;;5010110;28;20022;-45
2021/05/04 11:55:08;;;;;;;2.42;1.60;;;14.90;80.60;;;;;;5012263;28;20040;-46
2021/05/04 11:57:34;;;;;;;7.40;1.70;;;15.00;79.70;;;;;;5029063;28;20017;-45
2021/05/04 12:00:00;;;;;;;3.00;1.10;;;14.70;78.40;;;;;;5029501;28;20219;-45
2021/05/04 12:02:27;;;;;;;3.72;1.15;;;14.70;79.80;;;;;;5028354;28;20544;-45
2021/05/04 12:04:53;;;;;;;3.90;1.20;;;14.80;79.60;;;;;;5028263;28;20033;-46
2021/05/04 12:07:51;;;;;;;2.20;1.33;;;14.70;79.50;;;;;;5028292;28;20028;-44
2021/05/04 12:10:17;;;;;;;2.35;1.42;;;14.50;81.00;;;;;;5020729;28;20108;-44
2021/05/04 12:13:13;;;;;;;2.90;1.20;;;14.40;82.30;;;;;;5028523;28;20550;-46
2021/05/04 12:15:44;;;;;;;4.03;1.48;;;14.70;83.30;;;;;;5026697;28;20075;-45
2021/05/04 12:18:17;;;;;;;6.28;1.77;;;14.50;84.60;;;;;;5025607;28;20021;-45
2021/05/04 12:20:48;;;;;;;3.70;1.45;;;13.90;89.20;;;;;;5028550;28;20071;-44
2021/05/04 12:23:14;;;;;;;;;;;13.60;90.80;;;;;;5026269;28;20021;-46
2021/05/04 12:25:51;;;;;;;2.08;1.30;;;13.30;91.00;;;;;;5027289;28;19921;-44
2021/05/04 12:28:20;;;;;;;3.55;1.40;;;13.10;92.00;;;;;;5025732;28;20025;-44
2021/05/04 12:30:47;;;;;;;2.47;1.17;;;13.20;90.20;;;;;;5025961;28;20063;-45
2021/05/04 12:33:13;;;;;;;3.03;1.10;;;13.30;90.20;;;;;;5027725;28;20487;-45
2021/05/04 12:36:06;;;;;;;3.28;1.40;;;13.20;89.20;;;;;;5027633;28;20036;-45
2021/05/04 12:38:49;;;;;;;2.92;1.30;;;13.20;88.30;;;;;;5023387;28;20314;-45
2021/05/04 12:41:17;;;;;;;1.73;1.48;;;13.30;89.80;;;;;;5024611;28;20120;-44
2021/05/04 12:44:01;;;;;;;2.90;1.50;;;13.30;91.60;;;;;;5027315;28;20018;-45
2021/05/04 12:46:32;;;;;;;3.63;1.40;;;13.20;92.20;;;;;;5027778;28;20022;-47
2021/05/04 12:49:00;;;;;;;3.38;1.48;;;13.10;93.80;;;;;;5027693;28;20514;-45
2021/05/04 12:51:30;;;;;;;2.63;1.40;;;13.00;93.30;;;;;;5027619;28;20079;-44
2021/05/04 12:54:10;;;;;;;3.20;1.50;;;13.10;93.70;;;;;;5026413;28;20415;-45
2021/05/04 12:56:36;;;;;;;1.17;1.07;;;13.00;94.60;;;;;;5027715;28;20027;-45
2021/05/04 12:59:15;;;;;;;8.85;2.22;;;13.00;92.60;;;;;;5026242;28;20108;-45
2021/05/04 13:01:44;;;;;;;4.72;2.35;;;13.00;92.10;;;;;;5024779;28;20080;-45
2021/05/04 13:04:24;;;;;;;2.10;1.50;;;13.10;92.50;;;;;;5027683;28;20109;-45